sensor_id;sensor_type;location;lat;lon;timestamp;P1;durP1;ratioP1;P2;durP2;ratioP2
53881;SDS011;39794;55.782;37.452;2022-10-16T00:01:15;7.35;;;3.78;;
53881;SDS011;39794;55.782;37.452;2022-10-16T00:03:45;6.57;;;4.50;;
53881;SDS011;39794;55.782;37.452;2022-10-16T00:06:16;10.55;;;4.20;;
53881;SDS011;39794;55.782;37.452;2022-10-16T00:08:46;10.65;;;4.13;;
53881;SDS011;39794;55.782;37.452;2022-10-16T00:11:16;7.32;;;4.13;;
53881;SDS011;39794;55.782;37.452;2022-10-16T00:13:45;8.45;;;4.03;;
53881;SDS011;39794;55.782;37.452;2022-10-16T00:16:14;10.63;;;3.97;;
53881;SDS011;39794;55.782;37.452;2022-10-16T00:18:43;8.32;;;4.35;;
53881;SDS011;39794;55.782;37.452;2022-10-16T00:21:12;8.73;;;3.92;;
53881;SDS011;39794;55.782;37.452;2022-10-16T00:24:02;6.13;;;4.55;;
53881;SDS011;39794;55.782;37.452;2022-10-16T00:26:32;5.78;;;4.00;;
53881;SDS011;39794;55.782;37.452;2022-10-16T00:29:01;8.90;;;4.60;;
53881;SDS011;39794;55.782;37.452;2022-10-16T00:31:29;8.15;;;4.50;;
53881;SDS011;39794;55.782;37.452;2022-10-16T00:33:58;6.68;;;4.10;;
53881;SDS011;39794;55.782;37.452;2022-10-16T00:36:27;7.85;;;4.45;;
53881;SDS011;39794;55.782;37.452;2022-10-16T00:38:56;6.45;;;3.78;;
53881;SDS011;39794;55.782;37.452;2022-10-16T00:41:33;12.65;;;4.63;;
53881;SDS011;39794;55.782;37.452;2022-10-16T00:44:02;7.72;;;4.03;;
53881;SDS011;39794;55.782;37.452;2022-10-16T00:46:33;7.97;;;4.15;;
53881;SDS011;39794;55.782;37.452;2022-10-16T00:49:05;5.55;;;3.78;;
53881;SDS011;39794;55.782;37.452;2022-10-16T00:51:35;5.63;;;3.75;;
53881;SDS011;39794;55.782;37.452;2022-10-16T00:54:06;8.85;;;4.32;;
53881;SDS011;39794;55.782;37.452;2022-10-16T00:56:38;8.25;;;4.05;;
53881;SDS011;39794;55.782;37.452;2022-10-16T00:59:11;8.15;;;4.13;;
53881;SDS011;39794;55.782;37.452;2022-10-16T01:01:43;8.75;;;4.15;;
53881;SDS011;39794;55.782;37.452;2022-10-16T01:04:11;7.43;;;4.13;;
53881;SDS011;39794;55.782;37.452;2022-10-16T01:06:42;8.70;;;4.32;;
53881;SDS011;39794;55.782;37.452;2022-10-16T01:09:16;7.82;;;4.50;;
53881;SDS011;39794;55.782;37.452;2022-10-16T01:11:51;6.40;;;4.28;;
53881;SDS011;39794;55.782;37.452;2022-10-16T01:14:26;8.35;;;4.65;;
53881;SDS011;39794;55.782;37.452;2022-10-16T01:17:01;7.68;;;4.50;;
53881;SDS011;39794;55.782;37.452;2022-10-16T01:19:37;9.68;;;4.32;;
53881;SDS011;39794;55.782;37.452;2022-10-16T01:22:12;7.53;;;4.22;;
53881;SDS011;39794;55.782;37.452;2022-10-16T01:24:43;10.20;;;4.88;;
53881;SDS011;39794;55.782;37.452;2022-10-16T01:27:19;9.57;;;4.70;;
53881;SDS011;39794;55.782;37.452;2022-10-16T01:29:51;6.78;;;4.00;;
53881;SDS011;39794;55.782;37.452;2022-10-16T01:32:23;11.23;;;4.45;;
53881;SDS011;39794;55.782;37.452;2022-10-16T01:34:57;9.70;;;4.40;;
53881;SDS011;39794;55.782;37.452;2022-10-16T01:37:32;8.35;;;4.15;;
53881;SDS011;39794;55.782;37.452;2022-10-16T01:40:05;12.45;;;4.25;;
53881;SDS011;39794;55.782;37.452;2022-10-16T01:42:37;8.82;;;4.00;;
53881;SDS011;39794;55.782;37.452;2022-10-16T01:45:07;9.68;;;3.95;;
53881;SDS011;39794;55.782;37.452;2022-10-16T01:47:38;7.68;;;4.30;;
53881;SDS011;39794;55.782;37.452;2022-10-16T01:50:07;6.95;;;4.03;;
53881;SDS011;39794;55.782;37.452;2022-10-16T01:52:37;7.43;;;4.25;;
53881;SDS011;39794;55.782;37.452;2022-10-16T01:55:07;9.90;;;4.43;;
53881;SDS011;39794;55.782;37.452;2022-10-16T01:57:38;10.00;;;4.40;;
53881;SDS011;39794;55.782;37.452;2022-10-16T02:00:10;5.75;;;4.03;;
53881;SDS011;39794;55.782;37.452;2022-10-16T02:02:40;7.35;;;4.25;;
53881;SDS011;39794;55.782;37.452;2022-10-16T02:05:12;11.23;;;4.65;;
53881;SDS011;39794;55.782;37.452;2022-10-16T02:07:44;7.95;;;4.40;;
53881;SDS011;39794;55.782;37.452;2022-10-16T02:10:12;9.70;;;4.22;;
53881;SDS011;39794;55.782;37.452;2022-10-16T02:12:43;6.00;;;3.97;;
53881;SDS011;39794;55.782;37.452;2022-10-16T02:15:34;10.07;;;4.18;;
53881;SDS011;39794;55.782;37.452;2022-10-16T02:18:02;7.57;;;4.35;;
53881;SDS011;39794;55.782;37.452;2022-10-16T02:20:32;7.72;;;4.50;;
53881;SDS011;39794;55.782;37.452;2022-10-16T02:23:08;7.45;;;3.92;;
53881;SDS011;39794;55.782;37.452;2022-10-16T02:25:40;6.00;;;4.38;;
53881;SDS011;39794;55.782;37.452;2022-10-16T02:28:12;8.88;;;4.30;;
53881;SDS011;39794;55.782;37.452;2022-10-16T02:30:45;7.50;;;3.80;;
53881;SDS011;39794;55.782;37.452;2022-10-16T02:33:15;6.18;;;4.18;;
53881;SDS011;39794;55.782;37.452;2022-10-16T02:35:44;6.05;;;4.10;;
53881;SDS011;39794;55.782;37.452;2022-10-16T02:38:15;8.32;;;4.05;;
53881;SDS011;39794;55.782;37.452;2022-10-16T02:40:44;8.05;;;4.25;;
53881;SDS011;39794;55.782;37.452;2022-10-16T02:43:14;7.20;;;4.00;;
53881;SDS011;39794;55.782;37.452;2022-10-16T02:45:42;9.07;;;4.07;;
53881;SDS011;39794;55.782;37.452;2022-10-16T02:48:11;8.93;;;4.13;;
53881;SDS011;39794;55.782;37.452;2022-10-16T02:50:39;9.07;;;4.40;;
53881;SDS011;39794;55.782;37.452;2022-10-16T02:53:07;7.80;;;4.53;;
53881;SDS011;39794;55.782;37.452;2022-10-16T02:55:36;11.48;;;4.07;;
53881;SDS011;39794;55.782;37.452;2022-10-16T02:58:04;9.23;;;4.70;;
53881;SDS011;39794;55.782;37.452;2022-10-16T03:00:34;9.40;;;4.13;;
53881;SDS011;39794;55.782;37.452;2022-10-16T03:03:02;7.65;;;4.40;;
53881;SDS011;39794;55.782;37.452;2022-10-16T03:05:30;8.25;;;4.72;;
53881;SDS011;39794;55.782;37.452;2022-10-16T03:07:59;7.03;;;4.63;;
53881;SDS011;39794;55.782;37.452;2022-10-16T03:10:27;7.00;;;3.90;;
53881;SDS011;39794;55.782;37.452;2022-10-16T03:12:56;7.75;;;4.55;;
53881;SDS011;39794;55.782;37.452;2022-10-16T03:15:24;8.85;;;4.25;;
53881;SDS011;39794;55.782;37.452;2022-10-16T03:17:56;9.63;;;4.65;;
53881;SDS011;39794;55.782;37.452;2022-10-16T03:20:25;11.30;;;4.38;;
53881;SDS011;39794;55.782;37.452;2022-10-16T03:22:53;9.23;;;4.60;;
53881;SDS011;39794;55.782;37.452;2022-10-16T03:25:21;7.97;;;4.13;;
53881;SDS011;39794;55.782;37.452;2022-10-16T03:27:50;8.65;;;4.50;;
53881;SDS011;39794;55.782;37.452;2022-10-16T03:30:18;11.65;;;4.82;;
53881;SDS011;39794;55.782;37.452;2022-10-16T03:32:47;11.13;;;5.13;;
53881;SDS011;39794;55.782;37.452;2022-10-16T03:35:22;9.80;;;5.35;;
53881;SDS011;39794;55.782;37.452;2022-10-16T03:37:51;10.20;;;4.32;;
53881;SDS011;39794;55.782;37.452;2022-10-16T03:40:19;7.10;;;4.80;;
53881;SDS011;39794;55.782;37.452;2022-10-16T03:42:48;7.65;;;4.43;;
53881;SDS011;39794;55.782;37.452;2022-10-16T03:45:16;10.32;;;4.65;;
53881;SDS011;39794;55.782;37.452;2022-10-16T03:47:44;8.63;;;4.75;;
53881;SDS011;39794;55.782;37.452;2022-10-16T03:50:14;8.05;;;4.13;;
53881;SDS011;39794;55.782;37.452;2022-10-16T03:52:43;8.40;;;4.47;;
53881;SDS011;39794;55.782;37.452;2022-10-16T03:55:12;6.93;;;4.20;;
53881;SDS011;39794;55.782;37.452;2022-10-16T03:57:40;12.10;;;4.55;;
53881;SDS011;39794;55.782;37.452;2022-10-16T04:00:09;9.45;;;5.55;;
53881;SDS011;39794;55.782;37.452;2022-10-16T04:02:39;8.48;;;4.25;;
53881;SDS011;39794;55.782;37.452;2022-10-16T04:05:07;6.40;;;4.30;;
53881;SDS011;39794;55.782;37.452;2022-10-16T04:07:36;8.60;;;4.30;;
53881;SDS011;39794;55.782;37.452;2022-10-16T04:10:06;6.35;;;4.15;;
53881;SDS011;39794;55.782;37.452;2022-10-16T04:12:35;9.48;;;4.65;;
53881;SDS011;39794;55.782;37.452;2022-10-16T04:15:04;11.57;;;4.53;;
53881;SDS011;39794;55.782;37.452;2022-10-16T04:17:32;9.05;;;4.13;;
53881;SDS011;39794;55.782;37.452;2022-10-16T04:20:01;9.50;;;4.00;;
53881;SDS011;39794;55.782;37.452;2022-10-16T04:22:30;7.75;;;4.45;;
53881;SDS011;39794;55.782;37.452;2022-10-16T04:24:58;6.70;;;4.32;;
53881;SDS011;39794;55.782;37.452;2022-10-16T04:27:30;8.30;;;4.50;;
53881;SDS011;39794;55.782;37.452;2022-10-16T04:29:59;8.73;;;4.35;;
53881;SDS011;39794;55.782;37.452;2022-10-16T04:32:28;9.73;;;4.35;;
53881;SDS011;39794;55.782;37.452;2022-10-16T04:34:57;7.95;;;4.43;;
53881;SDS011;39794;55.782;37.452;2022-10-16T04:37:25;7.90;;;4.47;;
53881;SDS011;39794;55.782;37.452;2022-10-16T04:39:54;13.52;;;4.80;;
53881;SDS011;39794;55.782;37.452;2022-10-16T04:42:23;8.65;;;4.13;;
53881;SDS011;39794;55.782;37.452;2022-10-16T04:44:52;6.47;;;3.80;;
53881;SDS011;39794;55.782;37.452;2022-10-16T04:47:21;9.15;;;4.90;;
53881;SDS011;39794;55.782;37.452;2022-10-16T04:49:50;9.27;;;4.75;;
53881;SDS011;39794;55.782;37.452;2022-10-16T04:52:18;7.43;;;4.68;;
53881;SDS011;39794;55.782;37.452;2022-10-16T04:54:48;7.65;;;4.60;;
53881;SDS011;39794;55.782;37.452;2022-10-16T04:57:17;10.93;;;4.70;;
53881;SDS011;39794;55.782;37.452;2022-10-16T04:59:45;8.75;;;4.25;;
53881;SDS011;39794;55.782;37.452;2022-10-16T05:02:15;6.38;;;4.50;;
53881;SDS011;39794;55.782;37.452;2022-10-16T05:04:43;13.65;;;4.75;;
53881;SDS011;39794;55.782;37.452;2022-10-16T05:07:11;9.63;;;4.38;;
53881;SDS011;39794;55.782;37.452;2022-10-16T05:09:40;9.27;;;4.47;;
53881;SDS011;39794;55.782;37.452;2022-10-16T05:12:08;9.98;;;5.13;;
53881;SDS011;39794;55.782;37.452;2022-10-16T05:14:37;9.15;;;4.75;;
53881;SDS011;39794;55.782;37.452;2022-10-16T05:17:05;10.63;;;4.28;;
53881;SDS011;39794;55.782;37.452;2022-10-16T05:19:35;8.02;;;4.18;;
53881;SDS011;39794;55.782;37.452;2022-10-16T05:22:03;7.35;;;4.53;;
53881;SDS011;39794;55.782;37.452;2022-10-16T05:24:32;9.13;;;4.70;;
53881;SDS011;39794;55.782;37.452;2022-10-16T05:27:00;10.65;;;4.45;;
53881;SDS011;39794;55.782;37.452;2022-10-16T05:29:28;8.40;;;4.78;;
53881;SDS011;39794;55.782;37.452;2022-10-16T05:31:57;5.88;;;4.20;;
53881;SDS011;39794;55.782;37.452;2022-10-16T05:34:25;11.38;;;4.75;;
53881;SDS011;39794;55.782;37.452;2022-10-16T05:36:58;9.85;;;4.65;;
53881;SDS011;39794;55.782;37.452;2022-10-16T05:39:26;10.23;;;4.53;;
53881;SDS011;39794;55.782;37.452;2022-10-16T05:41:54;7.88;;;4.60;;
53881;SDS011;39794;55.782;37.452;2022-10-16T05:44:23;12.23;;;4.57;;
53881;SDS011;39794;55.782;37.452;2022-10-16T05:46:51;7.70;;;4.35;;
53881;SDS011;39794;55.782;37.452;2022-10-16T05:49:20;12.30;;;4.75;;
53881;SDS011;39794;55.782;37.452;2022-10-16T05:51:48;9.60;;;4.57;;
53881;SDS011;39794;55.782;37.452;2022-10-16T05:54:18;8.13;;;4.90;;
53881;SDS011;39794;55.782;37.452;2022-10-16T05:56:46;8.27;;;4.30;;
53881;SDS011;39794;55.782;37.452;2022-10-16T05:59:15;8.95;;;4.50;;
53881;SDS011;39794;55.782;37.452;2022-10-16T06:01:43;14.13;;;4.50;;
53881;SDS011;39794;55.782;37.452;2022-10-16T06:04:11;8.25;;;4.82;;
53881;SDS011;39794;55.782;37.452;2022-10-16T06:06:40;10.27;;;5.15;;
53881;SDS011;39794;55.782;37.452;2022-10-16T06:09:08;10.60;;;4.50;;
53881;SDS011;39794;55.782;37.452;2022-10-16T06:11:38;11.43;;;4.32;;
53881;SDS011;39794;55.782;37.452;2022-10-16T06:14:07;11.52;;;4.65;;
53881;SDS011;39794;55.782;37.452;2022-10-16T06:16:36;11.85;;;4.57;;
53881;SDS011;39794;55.782;37.452;2022-10-16T06:19:05;11.93;;;5.30;;
53881;SDS011;39794;55.782;37.452;2022-10-16T06:21:34;8.05;;;4.80;;
53881;SDS011;39794;55.782;37.452;2022-10-16T06:24:03;8.02;;;4.35;;
53881;SDS011;39794;55.782;37.452;2022-10-16T06:26:31;10.15;;;4.75;;
53881;SDS011;39794;55.782;37.452;2022-10-16T06:29:01;10.68;;;4.85;;
53881;SDS011;39794;55.782;37.452;2022-10-16T06:31:30;8.45;;;4.82;;
53881;SDS011;39794;55.782;37.452;2022-10-16T06:34:00;12.82;;;4.90;;
53881;SDS011;39794;55.782;37.452;2022-10-16T06:36:31;9.02;;;5.10;;
53881;SDS011;39794;55.782;37.452;2022-10-16T06:38:59;11.02;;;4.97;;
53881;SDS011;39794;55.782;37.452;2022-10-16T06:41:28;14.07;;;5.82;;
53881;SDS011;39794;55.782;37.452;2022-10-16T06:44:04;12.75;;;5.95;;
53881;SDS011;39794;55.782;37.452;2022-10-16T06:46:33;11.82;;;5.10;;
53881;SDS011;39794;55.782;37.452;2022-10-16T06:49:02;11.35;;;5.25;;
53881;SDS011;39794;55.782;37.452;2022-10-16T06:51:30;11.85;;;4.90;;
53881;SDS011;39794;55.782;37.452;2022-10-16T06:54:06;13.35;;;5.32;;
53881;SDS011;39794;55.782;37.452;2022-10-16T06:56:34;10.77;;;5.38;;
53881;SDS011;39794;55.782;37.452;2022-10-16T06:59:04;9.63;;;4.95;;
53881;SDS011;39794;55.782;37.452;2022-10-16T07:01:32;13.68;;;5.22;;
53881;SDS011;39794;55.782;37.452;2022-10-16T07:04:01;12.40;;;5.90;;
53881;SDS011;39794;55.782;37.452;2022-10-16T07:06:31;10.07;;;5.28;;
53881;SDS011;39794;55.782;37.452;2022-10-16T07:09:01;11.57;;;4.95;;
53881;SDS011;39794;55.782;37.452;2022-10-16T07:11:31;10.55;;;4.72;;
53881;SDS011;39794;55.782;37.452;2022-10-16T07:13:59;9.10;;;5.40;;
53881;SDS011;39794;55.782;37.452;2022-10-16T07:16:29;10.05;;;5.05;;
53881;SDS011;39794;55.782;37.452;2022-10-16T07:18:59;9.10;;;5.57;;
53881;SDS011;39794;55.782;37.452;2022-10-16T07:21:29;11.85;;;5.13;;
53881;SDS011;39794;55.782;37.452;2022-10-16T07:24:02;8.23;;;5.13;;
53881;SDS011;39794;55.782;37.452;2022-10-16T07:26:32;12.57;;;6.13;;
53881;SDS011;39794;55.782;37.452;2022-10-16T07:29:02;11.50;;;5.40;;
53881;SDS011;39794;55.782;37.452;2022-10-16T07:31:32;9.52;;;5.05;;
53881;SDS011;39794;55.782;37.452;2022-10-16T07:34:01;9.15;;;4.72;;
53881;SDS011;39794;55.782;37.452;2022-10-16T07:36:29;7.78;;;4.78;;
53881;SDS011;39794;55.782;37.452;2022-10-16T07:38:58;10.95;;;5.00;;
53881;SDS011;39794;55.782;37.452;2022-10-16T07:41:26;12.50;;;5.07;;
53881;SDS011;39794;55.782;37.452;2022-10-16T07:43:55;9.95;;;5.07;;
53881;SDS011;39794;55.782;37.452;2022-10-16T07:46:27;16.92;;;5.53;;
53881;SDS011;39794;55.782;37.452;2022-10-16T07:48:56;11.10;;;5.10;;
53881;SDS011;39794;55.782;37.452;2022-10-16T07:51:25;13.60;;;5.43;;
53881;SDS011;39794;55.782;37.452;2022-10-16T07:53:54;8.13;;;4.85;;
53881;SDS011;39794;55.782;37.452;2022-10-16T07:56:23;12.98;;;5.60;;
53881;SDS011;39794;55.782;37.452;2022-10-16T07:58:52;10.98;;;4.85;;
53881;SDS011;39794;55.782;37.452;2022-10-16T08:01:20;8.73;;;4.88;;
53881;SDS011;39794;55.782;37.452;2022-10-16T08:03:49;6.35;;;4.95;;
53881;SDS011;39794;55.782;37.452;2022-10-16T08:06:20;9.68;;;5.07;;
53881;SDS011;39794;55.782;37.452;2022-10-16T08:08:54;14.27;;;5.47;;
53881;SDS011;39794;55.782;37.452;2022-10-16T08:11:23;10.63;;;4.57;;
53881;SDS011;39794;55.782;37.452;2022-10-16T08:13:51;9.77;;;4.80;;
53881;SDS011;39794;55.782;37.452;2022-10-16T08:16:20;13.10;;;4.97;;
53881;SDS011;39794;55.782;37.452;2022-10-16T08:18:49;15.00;;;5.10;;
53881;SDS011;39794;55.782;37.452;2022-10-16T08:21:19;14.23;;;5.25;;
53881;SDS011;39794;55.782;37.452;2022-10-16T08:23:50;9.80;;;4.95;;
53881;SDS011;39794;55.782;37.452;2022-10-16T08:26:24;7.72;;;4.43;;
53881;SDS011;39794;55.782;37.452;2022-10-16T08:28:53;9.27;;;4.90;;
53881;SDS011;39794;55.782;37.452;2022-10-16T08:31:22;9.95;;;4.53;;
53881;SDS011;39794;55.782;37.452;2022-10-16T08:33:51;8.93;;;4.07;;
53881;SDS011;39794;55.782;37.452;2022-10-16T08:36:19;10.45;;;4.95;;
53881;SDS011;39794;55.782;37.452;2022-10-16T08:38:49;13.15;;;4.43;;
53881;SDS011;39794;55.782;37.452;2022-10-16T08:41:30;9.98;;;4.20;;
53881;SDS011;39794;55.782;37.452;2022-10-16T08:44:18;9.75;;;4.05;;
53881;SDS011;39794;55.782;37.452;2022-10-16T08:46:55;11.35;;;4.53;;
53881;SDS011;39794;55.782;37.452;2022-10-16T08:49:29;6.80;;;3.92;;
53881;SDS011;39794;55.782;37.452;2022-10-16T08:51:58;13.90;;;3.90;;
53881;SDS011;39794;55.782;37.452;2022-10-16T08:54:29;11.07;;;3.78;;
53881;SDS011;39794;55.782;37.452;2022-10-16T08:57:07;9.98;;;3.97;;
53881;SDS011;39794;55.782;37.452;2022-10-16T08:59:37;10.20;;;3.90;;
53881;SDS011;39794;55.782;37.452;2022-10-16T09:02:13;6.40;;;3.53;;
53881;SDS011;39794;55.782;37.452;2022-10-16T09:05:16;11.82;;;3.67;;
53881;SDS011;39794;55.782;37.452;2022-10-16T09:07:50;6.40;;;3.33;;
53881;SDS011;39794;55.782;37.452;2022-10-16T09:10:30;5.43;;;3.08;;
53881;SDS011;39794;55.782;37.452;2022-10-16T09:13:09;10.15;;;3.15;;
53881;SDS011;39794;55.782;37.452;2022-10-16T09:15:44;7.97;;;3.00;;
53881;SDS011;39794;55.782;37.452;2022-10-16T09:18:17;13.98;;;3.40;;
53881;SDS011;39794;55.782;37.452;2022-10-16T09:20:49;6.38;;;2.58;;
53881;SDS011;39794;55.782;37.452;2022-10-16T09:23:21;6.85;;;3.08;;
53881;SDS011;39794;55.782;37.452;2022-10-16T09:25:54;5.60;;;3.20;;
53881;SDS011;39794;55.782;37.452;2022-10-16T09:28:23;7.20;;;3.47;;
53881;SDS011;39794;55.782;37.452;2022-10-16T09:30:51;9.32;;;3.25;;
53881;SDS011;39794;55.782;37.452;2022-10-16T09:33:20;9.65;;;3.13;;
53881;SDS011;39794;55.782;37.452;2022-10-16T09:35:50;9.35;;;3.00;;
53881;SDS011;39794;55.782;37.452;2022-10-16T09:38:24;4.55;;;2.80;;
53881;SDS011;39794;55.782;37.452;2022-10-16T09:43:31;5.22;;;3.20;;
53881;SDS011;39794;55.782;37.452;2022-10-16T09:46:02;6.32;;;3.65;;
53881;SDS011;39794;55.782;37.452;2022-10-16T09:48:34;6.00;;;2.78;;
53881;SDS011;39794;55.782;37.452;2022-10-16T09:51:05;4.40;;;2.78;;
53881;SDS011;39794;55.782;37.452;2022-10-16T09:53:42;8.73;;;3.20;;
53881;SDS011;39794;55.782;37.452;2022-10-16T09:56:21;6.22;;;2.90;;
53881;SDS011;39794;55.782;37.452;2022-10-16T09:58:51;4.75;;;2.90;;
53881;SDS011;39794;55.782;37.452;2022-10-16T10:01:20;6.20;;;3.25;;
53881;SDS011;39794;55.782;37.452;2022-10-16T10:03:49;5.18;;;2.80;;
53881;SDS011;39794;55.782;37.452;2022-10-16T10:06:22;7.22;;;3.28;;
53881;SDS011;39794;55.782;37.452;2022-10-16T10:08:53;6.70;;;3.17;;
53881;SDS011;39794;55.782;37.452;2022-10-16T10:11:40;6.53;;;3.05;;
53881;SDS011;39794;55.782;37.452;2022-10-16T10:14:15;6.93;;;2.75;;
53881;SDS011;39794;55.782;37.452;2022-10-16T10:16:46;5.82;;;2.78;;
53881;SDS011;39794;55.782;37.452;2022-10-16T10:19:16;7.57;;;2.90;;
53881;SDS011;39794;55.782;37.452;2022-10-16T10:21:45;6.25;;;2.90;;
53881;SDS011;39794;55.782;37.452;2022-10-16T10:24:14;9.55;;;3.22;;
53881;SDS011;39794;55.782;37.452;2022-10-16T10:26:47;5.85;;;2.70;;
53881;SDS011;39794;55.782;37.452;2022-10-16T10:29:20;6.82;;;2.72;;
53881;SDS011;39794;55.782;37.452;2022-10-16T10:31:55;6.65;;;2.97;;
53881;SDS011;39794;55.782;37.452;2022-10-16T10:34:37;6.50;;;2.83;;
53881;SDS011;39794;55.782;37.452;2022-10-16T10:37:12;9.88;;;3.47;;
53881;SDS011;39794;55.782;37.452;2022-10-16T10:39:49;4.35;;;2.75;;
53881;SDS011;39794;55.782;37.452;2022-10-16T10:42:23;4.38;;;2.78;;
53881;SDS011;39794;55.782;37.452;2022-10-16T10:47:44;7.47;;;2.92;;
53881;SDS011;39794;55.782;37.452;2022-10-16T10:50:20;6.05;;;3.03;;
53881;SDS011;39794;55.782;37.452;2022-10-16T10:55:28;6.53;;;3.28;;
53881;SDS011;39794;55.782;37.452;2022-10-16T11:00:57;5.18;;;3.00;;
53881;SDS011;39794;55.782;37.452;2022-10-16T11:03:37;7.60;;;2.90;;
53881;SDS011;39794;55.782;37.452;2022-10-16T11:08:43;4.90;;;2.85;;
53881;SDS011;39794;55.782;37.452;2022-10-16T11:11:15;6.68;;;2.90;;
53881;SDS011;39794;55.782;37.452;2022-10-16T11:13:49;12.68;;;3.50;;
53881;SDS011;39794;55.782;37.452;2022-10-16T11:16:24;5.95;;;3.42;;
53881;SDS011;39794;55.782;37.452;2022-10-16T11:18:56;5.00;;;2.90;;
53881;SDS011;39794;55.782;37.452;2022-10-16T11:21:28;11.23;;;3.60;;
53881;SDS011;39794;55.782;37.452;2022-10-16T11:23:59;5.65;;;2.90;;
53881;SDS011;39794;55.782;37.452;2022-10-16T11:26:30;5.78;;;2.97;;
53881;SDS011;39794;55.782;37.452;2022-10-16T11:29:03;4.93;;;3.20;;
53881;SDS011;39794;55.782;37.452;2022-10-16T11:31:38;5.50;;;3.00;;
53881;SDS011;39794;55.782;37.452;2022-10-16T11:34:09;8.50;;;3.35;;
53881;SDS011;39794;55.782;37.452;2022-10-16T11:36:44;8.27;;;3.20;;
53881;SDS011;39794;55.782;37.452;2022-10-16T11:39:19;4.97;;;3.08;;
53881;SDS011;39794;55.782;37.452;2022-10-16T11:41:49;4.28;;;2.67;;
53881;SDS011;39794;55.782;37.452;2022-10-16T11:44:24;8.18;;;3.83;;
53881;SDS011;39794;55.782;37.452;2022-10-16T11:47:03;6.03;;;2.90;;
53881;SDS011;39794;55.782;37.452;2022-10-16T11:49:58;6.90;;;2.92;;
53881;SDS011;39794;55.782;37.452;2022-10-16T11:52:30;4.75;;;3.10;;
53881;SDS011;39794;55.782;37.452;2022-10-16T11:55:04;7.80;;;2.83;;
53881;SDS011;39794;55.782;37.452;2022-10-16T11:57:39;6.07;;;3.13;;
53881;SDS011;39794;55.782;37.452;2022-10-16T12:00:14;10.77;;;3.38;;
53881;SDS011;39794;55.782;37.452;2022-10-16T12:02:50;9.20;;;3.33;;
53881;SDS011;39794;55.782;37.452;2022-10-16T12:05:24;8.93;;;3.38;;
53881;SDS011;39794;55.782;37.452;2022-10-16T12:08:02;6.28;;;3.30;;
53881;SDS011;39794;55.782;37.452;2022-10-16T12:10:36;7.72;;;3.20;;
53881;SDS011;39794;55.782;37.452;2022-10-16T12:13:29;7.22;;;3.30;;
53881;SDS011;39794;55.782;37.452;2022-10-16T12:19:02;6.18;;;3.15;;
53881;SDS011;39794;55.782;37.452;2022-10-16T12:21:38;8.43;;;3.40;;
53881;SDS011;39794;55.782;37.452;2022-10-16T12:24:06;6.45;;;3.03;;
53881;SDS011;39794;55.782;37.452;2022-10-16T12:26:49;7.40;;;3.35;;
53881;SDS011;39794;55.782;37.452;2022-10-16T12:29:22;5.90;;;3.47;;
53881;SDS011;39794;55.782;37.452;2022-10-16T12:31:56;6.25;;;3.10;;
53881;SDS011;39794;55.782;37.452;2022-10-16T12:34:27;7.53;;;3.22;;
53881;SDS011;39794;55.782;37.452;2022-10-16T12:37:06;7.32;;;2.90;;
53881;SDS011;39794;55.782;37.452;2022-10-16T12:39:37;6.43;;;3.28;;
53881;SDS011;39794;55.782;37.452;2022-10-16T12:42:17;9.35;;;3.55;;
53881;SDS011;39794;55.782;37.452;2022-10-16T12:44:48;9.80;;;3.58;;
53881;SDS011;39794;55.782;37.452;2022-10-16T12:47:22;9.50;;;3.60;;
53881;SDS011;39794;55.782;37.452;2022-10-16T12:49:52;4.78;;;3.15;;
53881;SDS011;39794;55.782;37.452;2022-10-16T12:52:27;13.05;;;2.90;;
53881;SDS011;39794;55.782;37.452;2022-10-16T12:54:59;6.25;;;2.70;;
53881;SDS011;39794;55.782;37.452;2022-10-16T12:57:32;8.45;;;3.60;;
53881;SDS011;39794;55.782;37.452;2022-10-16T13:00:21;7.10;;;3.20;;
53881;SDS011;39794;55.782;37.452;2022-10-16T13:02:59;4.15;;;3.00;;
53881;SDS011;39794;55.782;37.452;2022-10-16T13:05:47;5.65;;;3.20;;
53881;SDS011;39794;55.782;37.452;2022-10-16T13:08:27;7.75;;;3.45;;
53881;SDS011;39794;55.782;37.452;2022-10-16T13:11:08;9.60;;;3.50;;
53881;SDS011;39794;55.782;37.452;2022-10-16T13:13:48;5.70;;;3.20;;
53881;SDS011;39794;55.782;37.452;2022-10-16T13:16:27;9.20;;;3.85;;
53881;SDS011;39794;55.782;37.452;2022-10-16T13:19:04;7.43;;;3.35;;
53881;SDS011;39794;55.782;37.452;2022-10-16T13:21:42;9.18;;;3.03;;
53881;SDS011;39794;55.782;37.452;2022-10-16T13:24:17;10.32;;;4.13;;
53881;SDS011;39794;55.782;37.452;2022-10-16T13:26:52;7.03;;;4.05;;
53881;SDS011;39794;55.782;37.452;2022-10-16T13:29:23;8.40;;;3.83;;
53881;SDS011;39794;55.782;37.452;2022-10-16T13:31:52;7.13;;;3.17;;
53881;SDS011;39794;55.782;37.452;2022-10-16T13:34:22;8.27;;;3.80;;
53881;SDS011;39794;55.782;37.452;2022-10-16T13:36:51;5.78;;;3.20;;
53881;SDS011;39794;55.782;37.452;2022-10-16T13:39:21;10.90;;;3.80;;
53881;SDS011;39794;55.782;37.452;2022-10-16T13:42:00;11.23;;;3.65;;
53881;SDS011;39794;55.782;37.452;2022-10-16T13:44:36;7.82;;;4.10;;
53881;SDS011;39794;55.782;37.452;2022-10-16T13:47:10;7.35;;;3.22;;
53881;SDS011;39794;55.782;37.452;2022-10-16T13:49:45;5.85;;;3.42;;
53881;SDS011;39794;55.782;37.452;2022-10-16T13:52:17;9.45;;;3.80;;
53881;SDS011;39794;55.782;37.452;2022-10-16T13:54:46;6.22;;;3.28;;
53881;SDS011;39794;55.782;37.452;2022-10-16T13:57:15;7.82;;;3.08;;
53881;SDS011;39794;55.782;37.452;2022-10-16T13:59:53;10.50;;;3.95;;
53881;SDS011;39794;55.782;37.452;2022-10-16T14:02:25;8.00;;;3.20;;
53881;SDS011;39794;55.782;37.452;2022-10-16T14:04:57;5.70;;;3.25;;
53881;SDS011;39794;55.782;37.452;2022-10-16T14:07:26;6.40;;;3.17;;
53881;SDS011;39794;55.782;37.452;2022-10-16T14:09:55;7.53;;;3.35;;
53881;SDS011;39794;55.782;37.452;2022-10-16T14:12:24;5.28;;;3.10;;
53881;SDS011;39794;55.782;37.452;2022-10-16T14:14:54;8.77;;;3.35;;
53881;SDS011;39794;55.782;37.452;2022-10-16T14:17:24;4.32;;;2.90;;
53881;SDS011;39794;55.782;37.452;2022-10-16T14:19:55;10.57;;;4.18;;
53881;SDS011;39794;55.782;37.452;2022-10-16T14:22:32;8.90;;;3.22;;
53881;SDS011;39794;55.782;37.452;2022-10-16T14:25:13;10.43;;;4.00;;
53881;SDS011;39794;55.782;37.452;2022-10-16T14:27:56;7.88;;;3.50;;
53881;SDS011;39794;55.782;37.452;2022-10-16T14:30:25;6.88;;;3.63;;
53881;SDS011;39794;55.782;37.452;2022-10-16T14:32:56;7.72;;;3.30;;
53881;SDS011;39794;55.782;37.452;2022-10-16T14:35:28;7.50;;;3.30;;
53881;SDS011;39794;55.782;37.452;2022-10-16T14:37:58;7.95;;;3.42;;
53881;SDS011;39794;55.782;37.452;2022-10-16T14:40:29;19.00;;;7.28;;
53881;SDS011;39794;55.782;37.452;2022-10-16T14:42:58;10.52;;;6.13;;
53881;SDS011;39794;55.782;37.452;2022-10-16T14:45:28;7.05;;;3.55;;
53881;SDS011;39794;55.782;37.452;2022-10-16T14:47:58;12.20;;;5.13;;
53881;SDS011;39794;55.782;37.452;2022-10-16T14:50:28;12.38;;;5.85;;
53881;SDS011;39794;55.782;37.452;2022-10-16T14:52:57;10.45;;;5.63;;
53881;SDS011;39794;55.782;37.452;2022-10-16T14:55:26;11.90;;;5.03;;
53881;SDS011;39794;55.782;37.452;2022-10-16T14:57:55;8.43;;;3.72;;
53881;SDS011;39794;55.782;37.452;2022-10-16T15:00:26;10.75;;;4.25;;
53881;SDS011;39794;55.782;37.452;2022-10-16T15:02:55;11.65;;;3.90;;
53881;SDS011;39794;55.782;37.452;2022-10-16T15:05:23;7.82;;;4.22;;
53881;SDS011;39794;55.782;37.452;2022-10-16T15:07:55;8.52;;;3.65;;
53881;SDS011;39794;55.782;37.452;2022-10-16T15:10:24;12.75;;;3.88;;
53881;SDS011;39794;55.782;37.452;2022-10-16T15:12:54;7.45;;;3.78;;